Current Weather Conditions: station 46145

sailwx.info

Wind from 290 at 13 knots gusting 15

Wave height 0.7 meters (2 feet), 11 second period

Air temperature 6.2° C
Water temperature 7.8° C

Last reported at 2017-Nov-23 07:00 UTC.
Time now 2017-Nov-23 07:46 UTC

Location: N 54°24' W 132°24'.
View on Google Maps.

See reports from other nearby stations

  
Tides and Currents Weather Stations Pressure Air Temp Water Temp Dewpoint Dewpoint Depression Visibility Wind Speed Wind Dir Waves Ship Positions
date/time (UTC)wind fromknots sea level pressurealtimeterstation pressurevisibilityair tempwater tempwave heightnotes
2017-Nov-23 07:00 290 13 gusting 15 6.2 7.8 0.7
2017-Nov-23 06:00 190 9 gusting 13 7.7 7.8 0.8
2017-Nov-23 05:00 190 9 gusting 13 7.9 7.8 0.7
2017-Nov-23 04:00 160 5 gusting 5 7.9 7.9 0.8
2017-Nov-23 03:00 210 3 gusting 5 7.6 7.7 0.8
2017-Nov-23 02:00 120 7 gusting 7 7.7 7.9 0.8
2017-Nov-23 01:00 100 5 gusting 7 7.9 8.0 0.9
2017-Nov-23 00:00 080 3 gusting 5 7.9 8.0 1.0
2017-Nov-22 23:00 080 5 gusting 7 7.9 8.0 1.0
2017-Nov-22 22:00 070 1 gusting 3 8.2 7.9 1.0
2017-Nov-22 21:00 7.9 7.9 1.0
2017-Nov-22 20:00 060 1 gusting 3 7.7 7.8 1.0
2017-Nov-22 19:00 110 1 gusting 1 7.5 7.8 1.1
2017-Nov-22 18:00 150 7 gusting 11 7.5 7.8 1.2
2017-Nov-22 17:00 130 7 gusting 9 7.6 7.8 1.4
2017-Nov-22 16:00 100 5 gusting 7 7.9 7.8 1.5
2017-Nov-22 15:00 100 11 gusting 15 8.0 7.8 1.7
2017-Nov-22 14:00 100 11 gusting 15 8.3 7.8 1.9
2017-Nov-22 13:00 090 15 gusting 17 8.1 7.7 2.2
2017-Nov-22 12:00 080 19 gusting 23 7.0 7.7 2.4
2017-Nov-22 11:00 070 23 gusting 29 6.2 7.7 2.3
2017-Nov-22 10:00 080 23 gusting 27 6.1 7.9 2.2
2017-Nov-22 02:00 070 21 gusting 25 6.9 7.8 2.0
2017-Nov-22 01:00 050 19 gusting 23 6.9 7.7 1.9
2017-Nov-22 00:00 050 21 gusting 25 6.8 7.7 2.0
2017-Nov-21 23:00 050 19 gusting 23 7.1 7.7 2.0
2017-Nov-21 22:00 050 17 gusting 23 6.8 7.8 2.3
2017-Nov-21 21:00 060 15 gusting 19 6.6 7.7 2.2
2017-Nov-21 20:00 080 19 gusting 23 6.9 7.7 2.1
2017-Nov-21 19:00 080 17 gusting 23 6.5 7.7 2.2
2017-Nov-21 18:00 110 17 gusting 21 7.5 7.7 2.4
2017-Nov-21 17:00 120 19 gusting 23 7.5 7.7 2.6
2017-Nov-21 16:00 120 21 gusting 27 7.6 7.8 2.8
2017-Nov-21 15:00 120 21 gusting 27 7.6 7.8 2.9
2017-Nov-21 14:00 130 23 gusting 27 7.3 7.8 2.8
2017-Nov-21 13:00 130 21 gusting 29 7.2 7.8 2.8
2017-Nov-21 12:00 140 21 gusting 29 7.5 7.8 2.7
2017-Nov-21 11:00 130 23 gusting 29 7.6 7.9 3.1
2017-Nov-21 10:00 130 21 gusting 27 7.7 7.8 2.7
2017-Nov-21 09:00 130 21 gusting 27 7.7 7.9 2.4
2017-Nov-21 08:00 130 23 gusting 29 8.0 8.0 2.1
2017-Nov-21 07:00 130 21 gusting 27 7.9 7.9 2.2